Duke Field,(Eglin Af Aux Nr 3) Airport
KEGI : now visible

Airfield :











YOU CAN JOIN US ON...

 
LOGIN :

Register | Disclaimer

   EN    FR    IT 

 









Legend :    VFR   Marginal VFR   IFR   Intensive IFR   Very Intensive IFR
Visi :
Ceiling :
>= 8 km
>= 3000ft
5 to 8 km
1000 to 3000 ft
1500m to 5 km
500 to 1000 ft
800 to 1500m
200 to 500 ft
< 800m
< 200 ft
Symbols :   Thunderstorms  Fog  Heavy snow  Heavy precipitations  Wind > 20 kt






- Airport Elevation : 191 ft


KEGI - Duke Field,(Eglin Af Aux Nr 3)

CURRENT METAR :
  • 261656Z AUTO 33009G19KT 10SM SCT040 BKN170 13/11 A3003 RMK AO2 PK WND 32028/41 SLP170 T01260113 $

EXPIRED METARs :
  • 261556Z AUTO 32014KT 10SM FEW016 SCT170 SCT200 14/14 A3002 RMK AO2 SLP166 T01370137 $
  • 261456Z AUTO 33006KT 10SM FEW200 14/14 A2998 RMK AO2 SLP153 T01370137 52027 $

TAF AMD TAF KEGI
Valid from the 26 at 13:00 until the 27 at 16:00 UTC


261300Z 2613/2716 35009KT 9999 SCT025 BKN050 BKN120 QNH2993INS
BECMG 2617/2618 33015G25KT 9999 FEW030 SCT070 BKN200 QNH2997INS
BECMG 2701/2702 34010G15KT 9999 FEW040 QNH3002INS TX17/2620Z TN12/2613Z



MET'MAP, your aeronautical weather chart ! - Copyright ORBIFLY December 2007 - Disclaimer

ORBIFLY MET'MAP TEAM :

Programming & Development : Alexandra Zaïnal
Concept & original design : Baudouin d'Aumeries
Assistance for programming : Marc-Olivier Méhu
Technical & hardware support : Manuel Goepfert

Contact : metmap@orbifly.com




SOURCES & CREDITS :

   NOAA       Earth
Advisory